Time;durP1;ratioP1;P1;durP2;ratioP2;P2;SDS_P1;SDS_P2;PMS_P1;PMS_P2;Temp;Humidity;BMP_temperature;BMP_pressure;BME280_temperature;BME280_humidity;BME280_pressure;Samples;Min_cycle;Max_cycle;Signal;HPM_P1;HPM_P2
2022/05/14 00:01:05;;;;;;;3.90;2.47;;;10.70;99.90;;;;;;4993568;28;20228;-40
2022/05/14 00:03:32;;;;;;;7.10;2.73;;;10.70;99.90;;;;;;4995079;28;20204;-40
2022/05/14 00:06:01;;;;;;;6.57;2.43;;;10.70;99.90;;;;;;4994819;28;20227;-39
2022/05/14 00:08:28;;;;;;;6.90;3.00;;;10.60;99.90;;;;;;4994608;28;20201;-42
2022/05/14 00:13:39;;;;;;;4.37;2.30;;;10.60;99.90;;;;;;4994541;28;20225;-40
2022/05/14 00:16:06;;;;;;;6.13;2.53;;;10.60;99.90;;;;;;4993309;28;20264;-40
2022/05/14 00:18:32;;;;;;;8.73;3.00;;;10.60;99.90;;;;;;4994940;28;20256;-42
2022/05/14 00:20:59;;;;;;;7.13;2.60;;;10.60;99.90;;;;;;4994114;28;20189;-41
2022/05/14 00:23:25;;;;;;;6.03;2.60;;;10.60;99.90;;;;;;4994102;28;20661;-39
2022/05/14 00:25:51;;;;;;;4.77;2.33;;;10.60;99.90;;;;;;4994013;28;20201;-39
2022/05/14 00:28:17;;;;;;;4.53;2.43;;;10.60;99.90;;;;;;4994396;28;20209;-39
2022/05/14 00:30:43;;;;;;;11.30;2.27;;;10.70;99.90;;;;;;4994753;28;20191;-38
2022/05/14 00:33:08;;;;;;;4.60;2.10;;;10.60;99.90;;;;;;4996201;28;20194;-41
2022/05/14 00:35:35;;;;;;;4.93;1.90;;;10.60;99.90;;;;;;4995479;28;20189;-40
2022/05/14 00:38:01;;;;;;;6.87;2.30;;;10.70;99.90;;;;;;4995249;28;20214;-40
2022/05/14 00:40:32;;;;;;;5.67;2.07;;;10.60;99.90;;;;;;4995215;28;20260;-38
2022/05/14 00:42:59;;;;;;;5.03;1.80;;;10.70;99.90;;;;;;4995608;28;20184;-40
2022/05/14 00:45:26;;;;;;;4.50;2.13;;;10.60;99.90;;;;;;4993882;28;20181;-41
2022/05/14 00:47:56;;;;;;;5.07;1.83;;;10.60;99.90;;;;;;4994134;28;20521;-41
2022/05/14 00:50:21;;;;;;;5.53;2.27;;;10.60;99.90;;;;;;4993961;28;20189;-41
2022/05/14 00:52:48;;;;;;;4.63;1.90;;;10.60;99.90;;;;;;4997505;28;20271;-40
2022/05/14 00:55:13;;;;;;;4.33;1.70;;;10.60;99.90;;;;;;4997817;28;20196;-39
2022/05/14 00:57:41;;;;;;;7.63;2.27;;;10.60;99.90;;;;;;4998292;28;20288;-41
2022/05/14 01:00:14;;;;;;;8.23;1.80;;;10.60;99.90;;;;;;4998129;28;20189;-40
2022/05/14 01:02:40;;;;;;;8.07;2.27;;;10.60;99.90;;;;;;4999196;28;20196;-42
2022/05/14 01:05:07;;;;;;;2.73;1.50;;;10.50;99.90;;;;;;4996436;28;20193;-42
2022/05/14 01:07:33;;;;;;;5.77;1.70;;;10.50;99.90;;;;;;4998401;28;20213;-42
2022/05/14 01:10:03;;;;;;;2.90;1.87;;;10.40;99.90;;;;;;4998746;28;20715;-40
2022/05/14 01:12:33;;;;;;;8.33;2.10;;;10.40;99.90;;;;;;4998015;28;20567;-39
2022/05/14 01:15:19;;;;;;;12.30;2.43;;;10.40;99.90;;;;;;4998415;28;20538;-39
2022/05/14 01:17:46;;;;;;;3.77;1.70;;;10.40;99.90;;;;;;4998243;28;20202;-39
2022/05/14 01:20:12;;;;;;;3.93;1.77;;;10.40;99.90;;;;;;4997403;28;20256;-38
2022/05/14 01:22:59;;;;;;;6.47;2.40;;;10.40;99.90;;;;;;4997384;28;20171;-40
2022/05/14 01:28:27;;;;;;;6.20;2.10;;;10.30;99.90;;;;;;4997300;28;20211;-39
2022/05/14 01:30:56;;;;;;;4.37;1.60;;;10.30;99.90;;;;;;4997250;28;20184;-38
2022/05/14 01:33:22;;;;;;;8.20;2.10;;;10.20;99.90;;;;;;4996963;28;20229;-40
2022/05/14 01:35:48;;;;;;;3.10;1.77;;;10.20;99.90;;;;;;4995791;28;20188;-38
2022/05/14 01:38:14;;;;;;;4.70;1.77;;;10.10;99.90;;;;;;4997665;28;20203;-39
2022/05/14 01:40:40;;;;;;;4.00;1.87;;;10.10;99.90;;;;;;4997156;28;20527;-38
2022/05/14 01:43:06;;;;;;;4.50;2.03;;;10.10;99.90;;;;;;4997021;28;20242;-40
2022/05/14 01:45:33;;;;;;;7.27;1.80;;;10.10;99.90;;;;;;4996890;28;20173;-37
2022/05/14 01:47:58;;;;;;;6.70;1.90;;;10.10;99.90;;;;;;4997110;28;20208;-38
2022/05/14 01:50:24;;;;;;;5.40;1.83;;;10.00;99.90;;;;;;4996810;28;20181;-38
2022/05/14 01:52:49;;;;;;;3.30;1.93;;;10.00;99.90;;;;;;4996947;28;20239;-38
2022/05/14 01:55:15;;;;;;;7.10;1.87;;;10.00;99.90;;;;;;4997093;28;20191;-40
2022/05/14 01:57:41;;;;;;;6.43;1.80;;;10.00;99.90;;;;;;4996840;28;20204;-38
2022/05/14 02:00:09;;;;;;;6.13;2.10;;;10.00;99.90;;;;;;4997431;28;20177;-39
2022/05/14 02:02:35;;;;;;;3.57;2.10;;;9.90;99.90;;;;;;4996262;28;20261;-43
2022/05/14 02:05:01;;;;;;;7.50;1.97;;;9.90;99.90;;;;;;4996466;28;20320;-43
2022/05/14 02:07:26;;;;;;;7.77;1.80;;;9.90;99.90;;;;;;4996602;28;20202;-43
2022/05/14 02:09:53;;;;;;;4.27;1.80;;;9.90;99.90;;;;;;4996385;28;20634;-43
2022/05/14 02:12:18;;;;;;;6.67;1.83;;;9.80;99.90;;;;;;4996655;28;20291;-44
2022/05/14 02:14:45;;;;;;;3.73;1.80;;;9.80;99.90;;;;;;4996648;28;20278;-44
2022/05/14 02:17:12;;;;;;;9.07;1.90;;;9.80;99.90;;;;;;4996518;28;20208;-43
2022/05/14 02:19:38;;;;;;;4.80;1.67;;;9.80;99.90;;;;;;4996086;28;20221;-42
2022/05/14 02:22:05;;;;;;;3.83;1.70;;;9.70;99.90;;;;;;4996172;28;20175;-41
2022/05/14 02:24:32;;;;;;;3.20;1.80;;;9.70;99.90;;;;;;4996382;28;20270;-43
2022/05/14 02:26:57;;;;;;;2.13;1.47;;;9.70;99.90;;;;;;4996069;28;20207;-43
2022/05/14 02:29:24;;;;;;;6.97;1.80;;;9.70;99.90;;;;;;4996479;28;20184;-42
2022/05/14 02:31:50;;;;;;;4.10;2.10;;;9.60;99.90;;;;;;4996868;28;20188;-42
2022/05/14 02:34:16;;;;;;;4.60;1.47;;;9.60;99.90;;;;;;4996207;28;20248;-40
2022/05/14 02:36:41;;;;;;;3.10;1.40;;;9.50;99.90;;;;;;4995893;28;20182;-43
2022/05/14 02:39:07;;;;;;;3.60;1.60;;;9.60;99.90;;;;;;4995892;28;20215;-43
2022/05/14 02:41:33;;;;;;;3.53;1.67;;;9.50;99.90;;;;;;4996334;28;20188;-44
2022/05/14 02:43:58;;;;;;;5.40;1.80;;;9.50;99.90;;;;;;4995896;28;20643;-42
2022/05/14 02:46:24;;;;;;;6.43;1.90;;;9.40;99.90;;;;;;4995944;28;20174;-44
2022/05/14 02:48:50;;;;;;;3.07;1.60;;;9.30;99.90;;;;;;4995894;28;20266;-43
2022/05/14 02:51:15;;;;;;;4.17;1.90;;;9.30;99.90;;;;;;4995918;28;20194;-42
2022/05/14 02:53:41;;;;;;;4.27;1.50;;;9.20;99.90;;;;;;4995919;28;20184;-43
2022/05/14 02:56:07;;;;;;;4.80;2.13;;;9.20;99.90;;;;;;4995503;28;20202;-44
2022/05/14 03:01:17;;;;;;;2.43;1.50;;;9.10;99.90;;;;;;4995504;28;20170;-41
2022/05/14 03:03:42;;;;;;;2.43;1.23;;;9.10;99.90;;;;;;4996028;28;20183;-41
2022/05/14 03:06:08;;;;;;;6.80;1.60;;;9.00;99.90;;;;;;4995472;28;20181;-42
2022/05/14 03:08:34;;;;;;;6.33;1.43;;;9.00;99.90;;;;;;4995414;28;20678;-42
2022/05/14 03:11:00;;;;;;;3.80;1.37;;;8.90;99.90;;;;;;4995372;28;20182;-42
2022/05/14 03:13:25;;;;;;;4.60;1.73;;;8.90;99.90;;;;;;4995779;28;20177;-45
2022/05/14 03:15:51;;;;;;;3.67;1.37;;;8.80;99.90;;;;;;4994907;28;20693;-44
2022/05/14 03:18:17;;;;;;;2.33;1.30;;;8.80;99.90;;;;;;4993897;28;20216;-42
2022/05/14 03:20:42;;;;;;;2.77;1.57;;;8.80;99.90;;;;;;4995848;28;20175;-43
2022/05/14 03:23:08;;;;;;;4.00;1.67;;;8.70;99.90;;;;;;4995465;28;20179;-43
2022/05/14 03:25:34;;;;;;;4.10;1.03;;;8.60;99.90;;;;;;4995435;28;20186;-43
2022/05/14 03:27:59;;;;;;;7.23;1.80;;;8.70;99.90;;;;;;4994978;28;20194;-45
2022/05/14 03:30:25;;;;;;;5.70;1.60;;;8.60;99.90;;;;;;4995301;28;20182;-41
2022/05/14 03:32:51;;;;;;;3.93;1.60;;;8.60;99.90;;;;;;4995456;28;20261;-45
2022/05/14 03:35:16;;;;;;;5.30;1.60;;;8.50;99.90;;;;;;4994857;28;20205;-43
2022/05/14 03:37:42;;;;;;;3.03;1.60;;;8.50;99.90;;;;;;4994815;28;20575;-43
2022/05/14 03:40:09;;;;;;;4.67;1.17;;;8.50;99.90;;;;;;4993722;28;20182;-44
2022/05/14 03:42:35;;;;;;;5.10;1.60;;;8.40;99.90;;;;;;4996210;28;20252;-43
2022/05/14 03:45:01;;;;;;;3.23;1.50;;;8.40;99.90;;;;;;4994925;28;20662;-44
2022/05/14 03:47:28;;;;;;;3.77;1.50;;;8.40;99.90;;;;;;4994625;28;20194;-43
2022/05/14 03:49:54;;;;;;;2.27;1.27;;;8.30;99.90;;;;;;4994493;28;20174;-41
2022/05/14 03:52:19;;;;;;;4.90;1.67;;;8.30;99.90;;;;;;4994835;28;20205;-43
2022/05/14 03:54:45;;;;;;;4.07;1.67;;;8.30;99.90;;;;;;4994831;28;20237;-42
2022/05/14 03:57:12;;;;;;;4.13;1.57;;;8.30;99.90;;;;;;4994245;28;20329;-42
2022/05/14 03:59:38;;;;;;;4.50;1.53;;;8.30;99.90;;;;;;4994596;28;20218;-42
2022/05/14 04:02:04;;;;;;;6.20;1.80;;;8.30;99.90;;;;;;4994876;28;20179;-43
2022/05/14 04:04:30;;;;;;;5.53;1.70;;;8.30;99.90;;;;;;4994506;28;20182;-42
2022/05/14 04:06:57;;;;;;;4.60;1.60;;;8.30;99.90;;;;;;4994461;28;20205;-43
2022/05/14 04:09:22;;;;;;;2.47;1.43;;;8.40;99.90;;;;;;4994232;28;20526;-42
2022/05/14 04:11:48;;;;;;;8.83;1.50;;;8.40;99.90;;;;;;4994391;28;20170;-42
2022/05/14 04:14:14;;;;;;;6.67;1.40;;;8.40;99.90;;;;;;4995295;28;20186;-42
2022/05/14 04:16:39;;;;;;;4.97;1.47;;;8.50;99.90;;;;;;4994660;28;20189;-44
2022/05/14 04:19:05;;;;;;;4.70;1.50;;;8.40;99.90;;;;;;4994318;28;20658;-41
2022/05/14 04:21:35;;;;;;;3.53;1.17;;;8.30;99.90;;;;;;4994136;28;20232;-43
2022/05/14 04:24:01;;;;;;;3.03;1.70;;;8.30;99.90;;;;;;4994298;28;20190;-41
2022/05/14 04:26:26;;;;;;;2.70;1.20;;;8.30;99.90;;;;;;4993457;28;20657;-43
2022/05/14 04:28:52;;;;;;;5.97;1.57;;;8.30;99.90;;;;;;4994163;28;20293;-41
2022/05/14 04:31:21;;;;;;;5.30;1.73;;;8.30;99.90;;;;;;4994238;28;20183;-42
2022/05/14 04:33:47;;;;;;;6.40;1.70;;;8.30;99.90;;;;;;4994286;28;20317;-42
2022/05/14 04:36:13;;;;;;;4.47;1.97;;;8.30;99.90;;;;;;4994087;28;20190;-42
2022/05/14 04:38:39;;;;;;;5.03;1.63;;;8.30;99.90;;;;;;4993967;28;20618;-42
2022/05/14 04:41:04;;;;;;;2.13;1.50;;;8.30;99.90;;;;;;4994037;28;20224;-45
2022/05/14 04:43:31;;;;;;;3.27;1.53;;;8.30;99.90;;;;;;4994103;28;20186;-44
2022/05/14 04:45:57;;;;;;;7.17;1.63;;;8.30;99.90;;;;;;4993866;28;20174;-45
2022/05/14 04:48:22;;;;;;;2.30;1.60;;;8.30;99.90;;;;;;4994159;28;20208;-44
2022/05/14 04:50:48;;;;;;;4.50;1.60;;;8.30;99.90;;;;;;4994075;28;20182;-43
2022/05/14 04:53:14;;;;;;;5.33;2.10;;;8.30;99.90;;;;;;4993827;28;20182;-44
2022/05/14 04:55:40;;;;;;;1.97;1.33;;;8.40;99.90;;;;;;4993833;28;20182;-44
2022/05/14 04:58:07;;;;;;;3.00;1.87;;;8.40;99.90;;;;;;4994135;28;20210;-44
2022/05/14 05:00:35;;;;;;;4.67;1.80;;;8.40;99.90;;;;;;4993960;28;20221;-44
2022/05/14 05:03:19;;;;;;;5.23;1.80;;;8.50;99.90;;;;;;4994065;28;20177;-43
2022/05/14 05:05:52;;;;;;;3.47;1.97;;;8.50;99.90;;;;;;4993903;28;20296;-43
2022/05/14 05:08:19;;;;;;;4.00;1.53;;;8.60;99.90;;;;;;4994008;28;20570;-44
2022/05/14 05:10:45;;;;;;;4.80;2.00;;;8.70;99.90;;;;;;4993818;28;20272;-44
2022/05/14 05:13:14;;;;;;;2.73;1.60;;;8.70;99.90;;;;;;4993724;28;20681;-45
2022/05/14 05:15:40;;;;;;;6.77;1.90;;;8.80;99.90;;;;;;4993872;28;20194;-44
2022/05/14 05:18:06;;;;;;;4.30;1.80;;;9.00;99.90;;;;;;4993482;28;20296;-44
2022/05/14 05:20:33;;;;;;;6.87;2.37;;;9.10;99.90;;;;;;4993749;28;20185;-44
2022/05/14 05:22:59;;;;;;;7.63;2.33;;;9.10;99.90;;;;;;4993938;28;20178;-45
2022/05/14 05:25:25;;;;;;;5.90;2.20;;;9.30;99.90;;;;;;4993799;28;20665;-46
2022/05/14 05:27:50;;;;;;;7.27;1.87;;;9.40;99.90;;;;;;4993901;28;20257;-44
2022/05/14 05:30:16;;;;;;;5.10;1.80;;;9.50;99.90;;;;;;4993830;28;20183;-44
2022/05/14 05:32:42;;;;;;;4.40;2.10;;;9.60;99.90;;;;;;4995313;28;20181;-46
2022/05/14 05:35:08;;;;;;;7.77;2.40;;;9.70;99.90;;;;;;4995423;28;20181;-45
2022/05/14 05:37:34;;;;;;;5.13;2.17;;;9.80;99.90;;;;;;4996757;28;20218;-43
2022/05/14 05:39:59;;;;;;;8.20;2.27;;;10.00;99.90;;;;;;4997678;28;20253;-46
2022/05/14 05:42:25;;;;;;;3.80;1.83;;;10.10;99.90;;;;;;4997932;28;20179;-46
2022/05/14 05:44:51;;;;;;;4.93;1.87;;;10.20;99.90;;;;;;4997166;28;20174;-45
2022/05/14 05:47:17;;;;;;;4.63;2.10;;;10.30;99.90;;;;;;4997072;28;20626;-45
2022/05/14 05:49:43;;;;;;;4.80;2.10;;;10.50;99.90;;;;;;4997167;28;20246;-44
2022/05/14 05:52:11;;;;;;;8.50;2.10;;;10.70;99.90;;;;;;4997253;28;20183;-45
2022/05/14 05:57:32;;;;;;;5.73;2.50;;;10.90;99.90;;;;;;4997206;28;20236;-45
2022/05/14 05:59:59;;;;;;;5.90;2.23;;;11.20;99.90;;;;;;4997306;28;20194;-44
2022/05/14 06:02:24;;;;;;;4.33;2.37;;;11.40;99.90;;;;;;4997564;28;20171;-44
2022/05/14 06:04:50;;;;;;;6.67;2.30;;;11.50;99.90;;;;;;4997168;28;20190;-44
2022/05/14 06:07:15;;;;;;;7.03;2.17;;;11.70;99.90;;;;;;4996875;28;20195;-47
2022/05/14 06:09:41;;;;;;;4.77;2.20;;;11.80;99.90;;;;;;4996893;28;20189;-45
2022/05/14 06:12:07;;;;;;;5.43;2.37;;;11.90;99.90;;;;;;4997069;28;20182;-45
2022/05/14 06:14:33;;;;;;;5.63;2.37;;;12.10;99.90;;;;;;4996462;28;20668;-45
2022/05/14 06:16:58;;;;;;;6.83;2.23;;;12.30;99.90;;;;;;4996548;28;20243;-43
2022/05/14 06:19:24;;;;;;;6.80;2.83;;;12.60;99.90;;;;;;4995035;28;20240;-45
2022/05/14 06:21:49;;;;;;;5.37;2.80;;;12.80;99.90;;;;;;4996530;28;20238;-45
2022/05/14 06:24:15;;;;;;;8.60;2.30;;;13.10;99.90;;;;;;4996456;28;20186;-43
2022/05/14 06:26:41;;;;;;;7.93;2.20;;;13.30;99.90;;;;;;4996311;28;20675;-45
2022/05/14 06:29:07;;;;;;;7.57;2.33;;;13.50;99.90;;;;;;4996366;28;20658;-44
2022/05/14 06:31:33;;;;;;;6.10;2.53;;;13.70;99.90;;;;;;4996144;28;20205;-45
2022/05/14 06:33:59;;;;;;;5.17;2.23;;;14.00;99.90;;;;;;4996212;28;20236;-46
2022/05/14 06:36:26;;;;;;;8.70;2.63;;;14.20;99.90;;;;;;4996054;28;20178;-44
2022/05/14 06:38:52;;;;;;;9.67;2.53;;;14.40;99.90;;;;;;4995759;28;20212;-46
2022/05/14 06:41:17;;;;;;;7.73;2.63;;;14.50;99.90;;;;;;4995945;28;20261;-45
2022/05/14 06:43:43;;;;;;;8.63;3.00;;;14.70;99.90;;;;;;4996225;28;20321;-46
2022/05/14 06:46:08;;;;;;;7.10;2.87;;;15.00;99.90;;;;;;4996040;28;20542;-45
2022/05/14 06:48:34;;;;;;;7.43;2.70;;;15.10;99.90;;;;;;4996215;28;20194;-47
2022/05/14 06:51:07;;;;;;;6.03;2.47;;;15.20;99.90;;;;;;4995578;28;20182;-46
2022/05/14 06:53:37;;;;;;;7.40;2.60;;;15.30;99.90;;;;;;4995757;28;20185;-45
2022/05/14 06:56:03;;;;;;;8.70;3.30;;;15.40;99.90;;;;;;4995518;28;20285;-44
2022/05/14 06:58:35;;;;;;;8.53;3.10;;;15.60;99.90;;;;;;4995445;28;20276;-46
2022/05/14 07:01:00;;;;;;;8.03;3.13;;;15.60;99.90;;;;;;4995929;28;20578;-46
2022/05/14 07:08:56;;;;;;;10.43;3.50;;;16.20;99.90;;;;;;4995319;28;20208;-45
2022/05/14 07:11:22;;;;;;;9.47;3.40;;;16.40;99.90;;;;;;4995400;28;20174;-45
2022/05/14 07:13:50;;;;;;;9.50;3.10;;;16.50;99.90;;;;;;4995609;28;20171;-47
2022/05/14 07:16:15;;;;;;;7.27;2.83;;;16.70;99.90;;;;;;4995695;28;20205;-45
2022/05/14 07:18:41;;;;;;;10.37;3.93;;;16.90;99.90;;;;;;4993816;28;20210;-45
2022/05/14 07:21:06;;;;;;;7.60;3.30;;;17.10;99.90;;;;;;4995210;28;20196;-47
2022/05/14 07:23:32;;;;;;;9.77;3.30;;;17.10;99.90;;;;;;4993983;28;20182;-46
2022/05/14 07:26:07;;;;;;;9.00;3.47;;;17.20;99.90;;;;;;4994973;28;20189;-47
2022/05/14 07:28:34;;;;;;;10.70;3.60;;;17.40;99.90;;;;;;4994951;28;20293;-45
2022/05/14 07:31:01;;;;;;;9.03;3.40;;;17.60;99.90;;;;;;4995245;28;20589;-46
2022/05/14 07:33:27;;;;;;;9.10;3.20;;;17.70;99.90;;;;;;4995214;28;20202;-46
2022/05/14 07:35:54;;;;;;;12.90;4.20;;;17.80;99.90;;;;;;4995283;28;20181;-47
2022/05/14 07:38:20;;;;;;;9.17;4.13;;;17.90;99.90;;;;;;4994364;28;20202;-47
2022/05/14 07:40:46;;;;;;;6.50;3.33;;;18.00;99.90;;;;;;4996339;28;20175;-47
2022/05/14 07:43:21;;;;;;;10.70;3.77;;;18.00;99.90;;;;;;4996510;28;20178;-47
2022/05/14 07:45:55;;;;;;;7.53;3.53;;;18.20;99.90;;;;;;4996806;28;20629;-48
2022/05/14 07:48:26;;;;;;;10.33;3.73;;;18.30;99.90;;;;;;4995191;28;20213;-47
2022/05/14 07:50:52;;;;;;;9.83;3.40;;;18.50;99.90;;;;;;4996424;28;20166;-47
2022/05/14 07:53:18;;;;;;;12.23;3.70;;;18.60;99.90;;;;;;4995740;28;20548;-48
2022/05/14 07:55:44;;;;;;;9.73;4.07;;;18.60;99.90;;;;;;4995330;28;20190;-48
2022/05/14 07:58:11;;;;;;;9.93;3.70;;;18.60;99.90;;;;;;4995235;28;20399;-46
2022/05/14 08:00:37;;;;;;;10.27;3.80;;;18.50;99.90;;;;;;4994719;28;20181;-46
2022/05/14 08:03:05;;;;;;;9.53;3.57;;;18.40;99.90;;;;;;4995523;28;20182;-47
2022/05/14 08:05:31;;;;;;;8.13;3.37;;;18.60;99.90;;;;;;4995558;28;20549;-47
2022/05/14 08:07:57;;;;;;;12.80;4.07;;;18.90;99.90;;;;;;4994431;28;20206;-47
2022/05/14 08:10:23;;;;;;;9.83;3.70;;;19.10;99.90;;;;;;4994332;28;20658;-48
2022/05/14 08:12:56;;;;;;;12.90;4.00;;;19.30;99.90;;;;;;4995270;28;20257;-47
2022/05/14 08:15:25;;;;;;;9.80;3.87;;;19.50;99.90;;;;;;4993913;28;20167;-46
2022/05/14 08:17:51;;;;;;;10.80;3.63;;;19.50;99.90;;;;;;4994181;28;20205;-46
2022/05/14 08:20:17;;;;;;;9.40;4.20;;;19.70;99.90;;;;;;4994013;28;20174;-48
2022/05/14 08:25:28;;;;;;;10.50;3.67;;;19.90;99.90;;;;;;4994129;28;20581;-47
2022/05/14 08:27:54;;;;;;;12.77;4.07;;;19.90;99.90;;;;;;4993913;28;20245;-47
2022/05/14 08:30:28;;;;;;;9.70;4.10;;;20.00;99.90;;;;;;4994032;28;20225;-47
2022/05/14 08:32:54;;;;;;;7.87;3.40;;;20.20;99.90;;;;;;4994274;28;20174;-47
2022/05/14 08:35:20;;;;;;;6.57;3.57;;;20.30;99.90;;;;;;4994202;28;20178;-47
2022/05/14 08:37:48;;;;;;;9.80;4.07;;;20.40;99.90;;;;;;4993430;28;20225;-42
2022/05/14 08:40:32;;;;;;;10.20;3.53;;;20.60;99.90;;;;;;4994082;28;20209;-42
2022/05/14 08:43:08;;;;;;;10.10;3.50;;;20.70;99.90;;;;;;4994041;28;20522;-40
2022/05/14 08:45:37;;;;;;;9.37;3.80;;;20.80;99.90;;;;;;4994176;28;20162;-41
2022/05/14 08:48:19;;;;;;;11.00;3.57;;;20.80;99.90;;;;;;4993835;28;20198;-41
2022/05/14 08:51:10;;;;;;;10.10;3.57;;;20.80;99.90;;;;;;4994251;28;20162;-41
2022/05/14 08:53:37;;;;;;;10.70;3.47;;;20.90;99.90;;;;;;4993487;28;20217;-41
2022/05/14 08:56:12;;;;;;;8.87;3.53;;;21.00;99.90;;;;;;4993758;28;20186;-41
2022/05/14 08:59:15;;;;;;;10.70;3.63;;;21.10;99.90;;;;;;4992516;28;20213;-41
2022/05/14 09:01:48;;;;;;;10.73;3.80;;;21.10;99.90;;;;;;4993712;28;20182;-41
2022/05/14 09:04:17;;;;;;;10.77;3.60;;;21.20;99.90;;;;;;4994892;28;20193;-41
2022/05/14 09:06:44;;;;;;;6.73;3.20;;;21.30;99.90;;;;;;4993855;28;20180;-41
2022/05/14 09:09:11;;;;;;;13.10;3.97;;;21.40;99.90;;;;;;4993891;28;20182;-40
2022/05/14 09:11:54;;;;;;;11.93;3.10;;;21.40;99.90;;;;;;4993826;28;20182;-40
2022/05/14 09:14:30;;;;;;;8.43;3.60;;;21.40;99.90;;;;;;4996308;28;20631;-41
2022/05/14 09:16:59;;;;;;;7.93;3.10;;;21.40;99.90;;;;;;4996285;28;20288;-40
2022/05/14 09:19:33;;;;;;;8.03;3.10;;;21.50;99.90;;;;;;4997299;28;20255;-40
2022/05/14 09:21:58;;;;;;;11.90;3.40;;;21.50;99.90;;;;;;4997673;28;20499;-42
2022/05/14 09:24:27;;;;;;;8.80;2.80;;;21.50;99.90;;;;;;4997652;28;20181;-42
2022/05/14 09:27:07;;;;;;;12.57;3.07;;;21.60;99.90;;;;;;4997471;28;20281;-43
2022/05/14 09:29:38;;;;;;;15.43;3.30;;;21.70;99.90;;;;;;4997506;28;20166;-42
2022/05/14 09:32:26;;;;;;;7.90;3.23;;;21.70;99.90;;;;;;4997451;28;20181;-43
2022/05/14 09:35:07;;;;;;;12.23;3.53;;;21.80;99.90;;;;;;4996917;28;20583;-41
2022/05/14 09:37:33;;;;;;;6.60;3.07;;;21.80;99.90;;;;;;4997413;28;20202;-42
2022/05/14 09:40:11;;;;;;;13.23;3.57;;;21.80;99.90;;;;;;4995575;28;20669;-43
2022/05/14 09:43:02;;;;;;;9.83;3.27;;;21.90;99.90;;;;;;4997036;28;20211;-42
2022/05/14 09:45:32;;;;;;;5.97;3.23;;;22.00;99.90;;;;;;4987443;28;20194;-41
2022/05/14 09:48:19;;;;;;;8.87;3.27;;;22.10;99.90;;;;;;4996756;28;20190;-40
2022/05/14 09:50:51;;;;;;;8.53;3.80;;;22.20;99.90;;;;;;4997189;28;20155;-39
2022/05/14 09:53:28;;;;;;;12.90;3.50;;;22.30;99.90;;;;;;4997151;28;20166;-41
2022/05/14 09:56:02;;;;;;;13.17;3.13;;;22.40;99.90;;;;;;4996833;28;20194;-42
2022/05/14 09:58:28;;;;;;;9.60;3.47;;;22.50;99.90;;;;;;4996597;28;20604;-42
2022/05/14 10:01:04;;;;;;;7.00;2.57;;;22.60;99.90;;;;;;4996933;28;20182;-40
2022/05/14 10:03:40;;;;;;;9.90;3.53;;;22.50;99.90;;;;;;4997536;28;20254;-43
2022/05/14 10:06:40;;;;;;;9.93;3.57;;;22.30;99.90;;;;;;4996888;28;20166;-42
2022/05/14 10:09:22;;;;;;;7.67;3.67;;;22.00;99.90;;;;;;4992529;28;20194;-41
2022/05/14 10:12:06;;;;;;;7.60;3.33;;;21.90;99.90;;;;;;4996608;28;20635;-41
2022/05/14 10:14:55;;;;;;;11.53;3.33;;;22.10;99.90;;;;;;4995940;28;20533;-41
2022/05/14 10:17:33;;;;;;;10.97;3.70;;;22.30;99.90;;;;;;4996426;28;20198;-42
2022/05/14 10:20:20;;;;;;;9.70;3.13;;;22.50;99.90;;;;;;4996318;28;20216;-41
2022/05/14 10:29:07;;;;;;;8.63;2.83;;;22.40;99.90;;;;;;4996377;28;20166;-43
2022/05/14 10:32:07;;;;;;;7.63;3.53;;;22.50;99.90;;;;;;4996581;28;20173;-42
2022/05/14 10:34:40;;;;;;;8.23;3.10;;;22.80;99.90;;;;;;4994676;28;20194;-42
2022/05/14 10:37:27;;;;;;;7.93;3.20;;;22.80;99.90;;;;;;4996311;28;20197;-41
2022/05/14 10:39:56;;;;;;;7.73;2.43;;;22.60;99.90;;;;;;4996175;28;20205;-43
2022/05/14 10:42:49;;;;;;;10.10;2.87;;;22.50;99.90;;;;;;4996033;28;20229;-41
2022/05/14 10:45:32;;;;;;;7.23;2.73;;;22.70;99.90;;;;;;4996104;28;20229;-41
2022/05/14 10:48:13;;;;;;;8.23;3.13;;;22.80;99.90;;;;;;4996216;28;20623;-41
2022/05/14 10:50:38;;;;;;;7.07;2.57;;;22.90;99.90;;;;;;4996009;28;20221;-43
2022/05/14 10:53:08;;;;;;;7.83;2.63;;;23.10;99.90;;;;;;4996436;28;20155;-41
2022/05/14 10:56:00;;;;;;;8.67;4.27;;;23.30;99.90;;;;;;4995767;28;20278;-41
2022/05/14 10:58:45;;;;;;;7.27;2.60;;;23.40;99.90;;;;;;4995746;28;20670;-49
2022/05/14 11:01:42;;;;;;;8.10;2.63;;;23.40;99.90;;;;;;4995916;28;20158;-48
2022/05/14 11:04:24;;;;;;;8.10;2.77;;;23.60;99.90;;;;;;4995578;28;20171;-49
2022/05/14 11:06:52;;;;;;;5.87;2.70;;;23.50;99.90;;;;;;4995594;28;20279;-48
2022/05/14 11:09:22;;;;;;;9.17;2.97;;;23.40;99.90;;;;;;4995346;28;20671;-50
2022/05/14 11:11:55;;;;;;;8.83;2.63;;;23.20;99.90;;;;;;4995361;28;20186;-49
2022/05/14 11:14:21;;;;;;;13.13;2.70;;;23.10;99.90;;;;;;4995782;28;20233;-48
2022/05/14 11:16:49;;;;;;;6.93;2.90;;;23.10;99.90;;;;;;4995384;28;20186;-48
2022/05/14 11:19:28;;;;;;;8.93;2.97;;;23.40;99.90;;;;;;4995052;28;20201;-48
2022/05/14 11:21:55;;;;;;;6.60;2.70;;;23.60;99.90;;;;;;4995164;28;20181;-48
2022/05/14 11:24:37;;;;;;;8.27;3.10;;;23.70;99.90;;;;;;4977792;28;20178;-47
2022/05/14 11:27:04;;;;;;;7.20;2.80;;;23.70;99.90;;;;;;4995242;28;20268;-48
2022/05/14 11:29:44;;;;;;;10.17;2.77;;;23.50;99.90;;;;;;4995302;28;20182;-49
2022/05/14 11:32:14;;;;;;;7.53;2.73;;;23.20;99.90;;;;;;4995093;28;20275;-47
2022/05/14 11:34:55;;;;;;;4.17;2.13;;;23.30;99.90;;;;;;4994764;28;20229;-47
2022/05/14 11:37:30;;;;;;;7.53;2.60;;;23.30;99.90;;;;;;4995424;28;20611;-48
2022/05/14 11:40:20;;;;;;;8.60;2.93;;;23.50;99.90;;;;;;4994634;28;20216;-46
2022/05/14 11:42:51;;;;;;;9.40;3.40;;;23.70;99.90;;;;;;4995033;28;20552;-46
2022/05/14 11:45:24;;;;;;;7.60;2.60;;;23.80;99.90;;;;;;4995098;28;20162;-47
2022/05/14 11:47:49;;;;;;;8.23;2.73;;;23.70;99.90;;;;;;4994614;28;20201;-47
2022/05/14 11:50:18;;;;;;;8.97;3.23;;;23.80;99.90;;;;;;4994556;28;20182;-48
2022/05/14 11:53:11;;;;;;;8.90;3.17;;;23.90;99.90;;;;;;4994613;28;20175;-47
2022/05/14 11:55:45;;;;;;;10.77;3.23;;;23.90;99.90;;;;;;4994510;28;20659;-46
2022/05/14 11:58:41;;;;;;;7.57;2.77;;;23.90;99.90;;;;;;4994632;28;20205;-48
2022/05/14 12:01:31;;;;;;;8.60;2.70;;;24.00;99.90;;;;;;4994386;28;20658;-47
2022/05/14 12:04:01;;;;;;;7.87;2.50;;;24.20;99.90;;;;;;4994952;28;20217;-47
2022/05/14 12:06:35;;;;;;;7.50;3.10;;;24.40;99.90;;;;;;4994632;28;20254;-47
2022/05/14 12:09:11;;;;;;;6.77;2.77;;;24.40;99.90;;;;;;4994529;28;20170;-48
2022/05/14 12:12:00;;;;;;;7.80;2.70;;;24.50;99.90;;;;;;4994147;28;20681;-47
2022/05/14 12:14:44;;;;;;;8.23;2.63;;;24.60;99.90;;;;;;4994653;28;20179;-47
2022/05/14 12:17:18;;;;;;;6.60;2.30;;;24.60;99.90;;;;;;4994246;28;20210;-48
2022/05/14 12:19:45;;;;;;;4.77;2.13;;;24.60;99.90;;;;;;4994195;28;20202;-47
2022/05/14 12:22:21;;;;;;;5.23;2.30;;;24.60;99.90;;;;;;4994367;28;20189;-47
2022/05/14 12:25:00;;;;;;;6.77;2.37;;;24.40;99.90;;;;;;4994280;28;20472;-47
2022/05/14 12:27:28;;;;;;;6.00;2.53;;;24.10;99.90;;;;;;4994284;28;20202;-48
2022/05/14 12:30:04;;;;;;;7.50;2.23;;;24.00;99.90;;;;;;4994213;28;20236;-47
2022/05/14 12:35:24;;;;;;;7.70;2.47;;;23.80;99.90;;;;;;4994195;28;20588;-47
2022/05/14 12:37:53;;;;;;;6.87;2.70;;;23.90;99.90;;;;;;4994053;28;20206;-47
2022/05/14 12:40:33;;;;;;;5.10;2.73;;;24.00;99.90;;;;;;4993741;28;20301;-47
2022/05/14 12:42:59;;;;;;;4.67;2.50;;;24.00;99.90;;;;;;4994260;28;20548;-47
2022/05/14 12:45:39;;;;;;;10.00;2.93;;;24.00;99.90;;;;;;4993800;28;20186;-47
2022/05/14 12:48:06;;;;;;;9.33;2.73;;;24.00;99.90;;;;;;4998682;28;20256;-48
2022/05/14 12:50:35;;;;;;;9.33;2.80;;;24.10;99.90;;;;;;5000582;28;20209;-47
2022/05/14 12:53:11;;;;;;;7.40;2.90;;;24.00;99.90;;;;;;5000333;28;20182;-47
2022/05/14 12:55:41;;;;;;;5.73;2.33;;;23.90;99.90;;;;;;4998895;28;20197;-49
2022/05/14 12:58:07;;;;;;;8.23;2.30;;;24.20;99.90;;;;;;5000147;28;20244;-47
2022/05/14 13:00:36;;;;;;;5.60;2.67;;;24.60;99.90;;;;;;5000605;28;20273;-46
2022/05/14 13:03:25;;;;;;;5.57;2.30;;;24.90;99.90;;;;;;5001233;28;20186;-48
2022/05/14 13:06:02;;;;;;;5.97;2.30;;;25.00;99.90;;;;;;5000506;28;20178;-48
2022/05/14 13:08:28;;;;;;;6.90;2.87;;;25.00;99.90;;;;;;5000428;28;20198;-47
2022/05/14 13:11:12;;;;;;;11.67;2.97;;;25.10;99.90;;;;;;5000349;28;20167;-47
2022/05/14 13:13:40;;;;;;;9.97;2.57;;;25.20;99.90;;;;;;5000042;28;20220;-48
2022/05/14 13:16:28;;;;;;;9.07;2.90;;;25.20;99.90;;;;;;5000343;28;20185;-47
2022/05/14 13:19:05;;;;;;;8.77;3.27;;;25.10;99.90;;;;;;5000206;28;20206;-47
2022/05/14 13:21:47;;;;;;;8.57;3.80;;;25.00;99.90;;;;;;5000109;28;20170;-49
2022/05/14 13:24:25;;;;;;;7.70;3.00;;;24.70;99.60;;;;;;5000229;28;20238;-47
2022/05/14 13:26:53;;;;;;;8.77;3.30;;;24.70;99.90;;;;;;4999911;28;20716;-47
2022/05/14 13:29:27;;;;;;;7.50;2.83;;;24.80;99.90;;;;;;4999958;28;20178;-47
2022/05/14 13:32:12;;;;;;;7.80;3.03;;;24.80;99.80;;;;;;5000451;28;20166;-48